sensor_id;sensor_type;location;lat;lon;timestamp;temperature;humidity
21672;DHT22;10997;52.242;8.168;2023-11-22T00:03:04;4.20;99.90
21672;DHT22;10997;52.242;8.168;2023-11-22T00:08:04;4.20;99.90
21672;DHT22;10997;52.242;8.168;2023-11-22T00:13:05;4.10;99.90
21672;DHT22;10997;52.242;8.168;2023-11-22T00:18:06;4.00;99.90
21672;DHT22;10997;52.242;8.168;2023-11-22T00:23:06;4.00;99.90
21672;DHT22;10997;52.242;8.168;2023-11-22T00:28:07;4.00;99.90
21672;DHT22;10997;52.242;8.168;2023-11-22T00:33:08;4.00;99.90
21672;DHT22;10997;52.242;8.168;2023-11-22T00:38:09;4.00;99.90
21672;DHT22;10997;52.242;8.168;2023-11-22T00:43:10;3.90;99.90
21672;DHT22;10997;52.242;8.168;2023-11-22T00:48:10;3.80;99.90
21672;DHT22;10997;52.242;8.168;2023-11-22T00:53:11;3.70;99.90
21672;DHT22;10997;52.242;8.168;2023-11-22T00:58:12;3.50;99.90
21672;DHT22;10997;52.242;8.168;2023-11-22T01:03:12;3.40;99.90
21672;DHT22;10997;52.242;8.168;2023-11-22T01:08:13;3.30;99.90
21672;DHT22;10997;52.242;8.168;2023-11-22T01:13:14;3.20;99.90
21672;DHT22;10997;52.242;8.168;2023-11-22T01:18:15;3.10;99.90
21672;DHT22;10997;52.242;8.168;2023-11-22T01:23:15;3.10;99.90
21672;DHT22;10997;52.242;8.168;2023-11-22T01:28:16;3.00;99.90
21672;DHT22;10997;52.242;8.168;2023-11-22T01:33:23;2.90;99.90
21672;DHT22;10997;52.242;8.168;2023-11-22T01:38:23;2.90;99.90
21672;DHT22;10997;52.242;8.168;2023-11-22T01:43:26;2.80;99.90
21672;DHT22;10997;52.242;8.168;2023-11-22T01:48:27;2.70;99.90
21672;DHT22;10997;52.242;8.168;2023-11-22T01:53:29;2.70;99.90
21672;DHT22;10997;52.242;8.168;2023-11-22T01:58:30;2.60;99.90
21672;DHT22;10997;52.242;8.168;2023-11-22T02:03:31;2.40;99.90
21672;DHT22;10997;52.242;8.168;2023-11-22T02:08:31;2.30;99.90
21672;DHT22;10997;52.242;8.168;2023-11-22T02:13:32;2.30;99.90
21672;DHT22;10997;52.242;8.168;2023-11-22T02:18:33;2.30;99.90
21672;DHT22;10997;52.242;8.168;2023-11-22T02:23:34;2.20;99.90
21672;DHT22;10997;52.242;8.168;2023-11-22T02:28:34;2.10;99.90
21672;DHT22;10997;52.242;8.168;2023-11-22T02:33:35;2.10;99.90
21672;DHT22;10997;52.242;8.168;2023-11-22T02:38:36;2.00;99.90
21672;DHT22;10997;52.242;8.168;2023-11-22T02:43:36;1.90;99.90
21672;DHT22;10997;52.242;8.168;2023-11-22T02:48:37;1.90;99.90
21672;DHT22;10997;52.242;8.168;2023-11-22T02:53:37;1.70;99.90
21672;DHT22;10997;52.242;8.168;2023-11-22T02:58:38;1.70;99.90
21672;DHT22;10997;52.242;8.168;2023-11-22T03:03:39;1.70;99.90
21672;DHT22;10997;52.242;8.168;2023-11-22T03:08:40;1.70;99.90
21672;DHT22;10997;52.242;8.168;2023-11-22T03:13:41;1.70;99.90
21672;DHT22;10997;52.242;8.168;2023-11-22T03:18:41;1.70;99.90
21672;DHT22;10997;52.242;8.168;2023-11-22T03:23:42;1.70;99.90
21672;DHT22;10997;52.242;8.168;2023-11-22T03:28:42;1.70;99.90
21672;DHT22;10997;52.242;8.168;2023-11-22T03:33:44;1.70;99.90
21672;DHT22;10997;52.242;8.168;2023-11-22T03:38:46;1.60;99.90
21672;DHT22;10997;52.242;8.168;2023-11-22T03:43:46;1.60;99.90
21672;DHT22;10997;52.242;8.168;2023-11-22T03:48:47;1.50;99.90
21672;DHT22;10997;52.242;8.168;2023-11-22T03:53:48;1.40;99.90
21672;DHT22;10997;52.242;8.168;2023-11-22T03:58:48;1.30;99.90
21672;DHT22;10997;52.242;8.168;2023-11-22T04:03:49;1.20;99.90
21672;DHT22;10997;52.242;8.168;2023-11-22T04:08:50;1.20;99.90
21672;DHT22;10997;52.242;8.168;2023-11-22T04:13:50;1.00;99.90
21672;DHT22;10997;52.242;8.168;2023-11-22T04:18:51;1.00;99.90
21672;DHT22;10997;52.242;8.168;2023-11-22T04:23:51;1.00;99.90
21672;DHT22;10997;52.242;8.168;2023-11-22T04:28:52;1.00;99.90
21672;DHT22;10997;52.242;8.168;2023-11-22T04:33:52;1.00;99.90
21672;DHT22;10997;52.242;8.168;2023-11-22T04:38:54;0.90;99.90
21672;DHT22;10997;52.242;8.168;2023-11-22T04:43:55;0.90;99.90
21672;DHT22;10997;52.242;8.168;2023-11-22T04:48:56;0.90;99.90
21672;DHT22;10997;52.242;8.168;2023-11-22T04:53:57;0.90;99.90
21672;DHT22;10997;52.242;8.168;2023-11-22T04:58:58;0.80;99.90
21672;DHT22;10997;52.242;8.168;2023-11-22T05:03:59;0.80;99.90
21672;DHT22;10997;52.242;8.168;2023-11-22T05:08:59;0.70;99.90
21672;DHT22;10997;52.242;8.168;2023-11-22T05:14:00;0.60;99.90
21672;DHT22;10997;52.242;8.168;2023-11-22T05:19:00;0.60;99.90
21672;DHT22;10997;52.242;8.168;2023-11-22T05:24:01;0.50;99.90
21672;DHT22;10997;52.242;8.168;2023-11-22T05:29:02;0.50;99.90
21672;DHT22;10997;52.242;8.168;2023-11-22T05:34:05;0.40;99.90
21672;DHT22;10997;52.242;8.168;2023-11-22T05:39:05;0.40;99.90
21672;DHT22;10997;52.242;8.168;2023-11-22T05:44:06;0.30;99.90
21672;DHT22;10997;52.242;8.168;2023-11-22T05:49:08;0.30;99.90
21672;DHT22;10997;52.242;8.168;2023-11-22T05:54:10;0.30;99.90
21672;DHT22;10997;52.242;8.168;2023-11-22T05:59:13;0.30;99.90
21672;DHT22;10997;52.242;8.168;2023-11-22T06:04:13;0.20;99.90
21672;DHT22;10997;52.242;8.168;2023-11-22T06:09:14;0.20;99.90
21672;DHT22;10997;52.242;8.168;2023-11-22T06:14:14;0.20;99.90
21672;DHT22;10997;52.242;8.168;2023-11-22T06:19:15;0.10;99.90
21672;DHT22;10997;52.242;8.168;2023-11-22T06:24:16;0.00;99.90
21672;DHT22;10997;52.242;8.168;2023-11-22T06:29:16;0.00;99.90
21672;DHT22;10997;52.242;8.168;2023-11-22T06:34:17;-0.10;99.90
21672;DHT22;10997;52.242;8.168;2023-11-22T06:39:17;-0.10;99.90
21672;DHT22;10997;52.242;8.168;2023-11-22T06:44:18;-0.10;99.90
21672;DHT22;10997;52.242;8.168;2023-11-22T06:49:19;-0.10;99.90
21672;DHT22;10997;52.242;8.168;2023-11-22T06:54:19;-0.10;99.90
21672;DHT22;10997;52.242;8.168;2023-11-22T06:59:20;-0.10;99.90
21672;DHT22;10997;52.242;8.168;2023-11-22T07:04:21;-0.10;99.90
21672;DHT22;10997;52.242;8.168;2023-11-22T07:09:23;0.00;99.90
21672;DHT22;10997;52.242;8.168;2023-11-22T07:14:23;0.10;99.90
21672;DHT22;10997;52.242;8.168;2023-11-22T07:19:25;0.10;99.90
21672;DHT22;10997;52.242;8.168;2023-11-22T07:24:26;-0.10;99.90
21672;DHT22;10997;52.242;8.168;2023-11-22T07:29:26;-0.10;99.90
21672;DHT22;10997;52.242;8.168;2023-11-22T07:34:29;-0.10;99.90
21672;DHT22;10997;52.242;8.168;2023-11-22T07:39:30;0.00;99.90
21672;DHT22;10997;52.242;8.168;2023-11-22T07:44:30;0.10;99.90
21672;DHT22;10997;52.242;8.168;2023-11-22T07:49:39;0.20;99.90
21672;DHT22;10997;52.242;8.168;2023-11-22T07:54:40;0.20;99.90
21672;DHT22;10997;52.242;8.168;2023-11-22T07:59:40;0.30;99.90
21672;DHT22;10997;52.242;8.168;2023-11-22T08:04:42;0.40;99.90
21672;DHT22;10997;52.242;8.168;2023-11-22T08:09:45;0.70;99.90
21672;DHT22;10997;52.242;8.168;2023-11-22T08:14:45;0.80;99.90
21672;DHT22;10997;52.242;8.168;2023-11-22T08:19:46;1.00;99.90
21672;DHT22;10997;52.242;8.168;2023-11-22T08:24:48;1.10;99.90
21672;DHT22;10997;52.242;8.168;2023-11-22T08:29:49;1.20;99.90
21672;DHT22;10997;52.242;8.168;2023-11-22T08:34:50;1.40;99.90
21672;DHT22;10997;52.242;8.168;2023-11-22T08:39:52;1.40;99.90
21672;DHT22;10997;52.242;8.168;2023-11-22T08:44:53;1.50;99.90
21672;DHT22;10997;52.242;8.168;2023-11-22T08:49:53;1.60;99.90
21672;DHT22;10997;52.242;8.168;2023-11-22T08:54:54;1.70;99.90
21672;DHT22;10997;52.242;8.168;2023-11-22T08:59:55;1.70;99.90
21672;DHT22;10997;52.242;8.168;2023-11-22T09:04:56;1.80;99.90
21672;DHT22;10997;52.242;8.168;2023-11-22T09:09:56;2.00;99.90
21672;DHT22;10997;52.242;8.168;2023-11-22T09:14:58;2.10;99.90
21672;DHT22;10997;52.242;8.168;2023-11-22T09:19:59;2.10;99.90
21672;DHT22;10997;52.242;8.168;2023-11-22T09:24:59;2.20;99.90
21672;DHT22;10997;52.242;8.168;2023-11-22T09:30:00;2.40;99.90
21672;DHT22;10997;52.242;8.168;2023-11-22T09:35:01;2.50;99.90
21672;DHT22;10997;52.242;8.168;2023-11-22T09:40:01;2.60;99.90
21672;DHT22;10997;52.242;8.168;2023-11-22T09:45:03;2.80;99.90
21672;DHT22;10997;52.242;8.168;2023-11-22T09:50:05;2.90;99.90
21672;DHT22;10997;52.242;8.168;2023-11-22T09:55:10;3.00;99.90
21672;DHT22;10997;52.242;8.168;2023-11-22T10:00:12;2.70;99.90
21672;DHT22;10997;52.242;8.168;2023-11-22T10:05:17;2.50;99.90
21672;DHT22;10997;52.242;8.168;2023-11-22T10:10:19;2.60;99.90
21672;DHT22;10997;52.242;8.168;2023-11-22T10:15:22;3.00;99.90
21672;DHT22;10997;52.242;8.168;2023-11-22T10:20:42;3.10;99.90
21672;DHT22;10997;52.242;8.168;2023-11-22T10:25:51;3.20;99.90
21672;DHT22;10997;52.242;8.168;2023-11-22T10:30:52;3.30;99.90
21672;DHT22;10997;52.242;8.168;2023-11-22T10:35:53;3.50;99.90
21672;DHT22;10997;52.242;8.168;2023-11-22T10:40:55;3.80;99.90
21672;DHT22;10997;52.242;8.168;2023-11-22T10:45:57;3.90;99.90
21672;DHT22;10997;52.242;8.168;2023-11-22T10:51:00;4.00;99.90
21672;DHT22;10997;52.242;8.168;2023-11-22T10:56:07;4.10;99.90
21672;DHT22;10997;52.242;8.168;2023-11-22T11:01:16;4.20;99.90
21672;DHT22;10997;52.242;8.168;2023-11-22T11:06:20;4.30;99.90
21672;DHT22;10997;52.242;8.168;2023-11-22T11:11:23;4.40;99.90
21672;DHT22;10997;52.242;8.168;2023-11-22T11:16:26;4.50;99.90
21672;DHT22;10997;52.242;8.168;2023-11-22T11:21:27;4.50;99.90
21672;DHT22;10997;52.242;8.168;2023-11-22T11:26:27;4.70;99.90
21672;DHT22;10997;52.242;8.168;2023-11-22T11:31:33;4.90;99.90
21672;DHT22;10997;52.242;8.168;2023-11-22T11:36:37;4.80;99.90
21672;DHT22;10997;52.242;8.168;2023-11-22T11:41:38;4.90;99.90
21672;DHT22;10997;52.242;8.168;2023-11-22T11:46:39;5.00;99.90
21672;DHT22;10997;52.242;8.168;2023-11-22T11:51:40;5.10;99.90
21672;DHT22;10997;52.242;8.168;2023-11-22T11:56:40;5.20;99.90
21672;DHT22;10997;52.242;8.168;2023-11-22T12:01:41;5.30;99.90
21672;DHT22;10997;52.242;8.168;2023-11-22T12:06:42;5.30;99.90
21672;DHT22;10997;52.242;8.168;2023-11-22T12:11:43;5.40;99.90
21672;DHT22;10997;52.242;8.168;2023-11-22T12:16:47;5.40;99.90
21672;DHT22;10997;52.242;8.168;2023-11-22T12:21:51;5.40;99.90
21672;DHT22;10997;52.242;8.168;2023-11-22T12:26:51;5.50;99.90
21672;DHT22;10997;52.242;8.168;2023-11-22T12:31:52;5.60;99.90
21672;DHT22;10997;52.242;8.168;2023-11-22T12:36:57;5.60;99.90
21672;DHT22;10997;52.242;8.168;2023-11-22T12:41:58;5.70;99.90
21672;DHT22;10997;52.242;8.168;2023-11-22T12:46:59;5.60;99.90
21672;DHT22;10997;52.242;8.168;2023-11-22T12:52:02;5.80;99.90
21672;DHT22;10997;52.242;8.168;2023-11-22T12:57:02;5.90;99.90
21672;DHT22;10997;52.242;8.168;2023-11-22T13:02:05;5.80;99.90
21672;DHT22;10997;52.242;8.168;2023-11-22T13:07:07;5.70;99.90
21672;DHT22;10997;52.242;8.168;2023-11-22T13:12:07;5.50;99.90
21672;DHT22;10997;52.242;8.168;2023-11-22T13:17:08;5.40;99.90
21672;DHT22;10997;52.242;8.168;2023-11-22T13:22:11;5.30;99.90
21672;DHT22;10997;52.242;8.168;2023-11-22T13:27:12;5.10;99.90
21672;DHT22;10997;52.242;8.168;2023-11-22T13:32:12;5.10;99.90
21672;DHT22;10997;52.242;8.168;2023-11-22T13:37:13;5.00;99.90
21672;DHT22;10997;52.242;8.168;2023-11-22T13:42:16;5.00;99.90
21672;DHT22;10997;52.242;8.168;2023-11-22T13:47:17;4.90;99.90
21672;DHT22;10997;52.242;8.168;2023-11-22T13:52:17;4.80;99.90
21672;DHT22;10997;52.242;8.168;2023-11-22T13:57:18;4.70;99.90
21672;DHT22;10997;52.242;8.168;2023-11-22T14:02:18;4.70;99.90
21672;DHT22;10997;52.242;8.168;2023-11-22T14:07:19;4.70;99.90
21672;DHT22;10997;52.242;8.168;2023-11-22T14:12:20;4.60;99.90
21672;DHT22;10997;52.242;8.168;2023-11-22T14:17:20;4.50;99.90
21672;DHT22;10997;52.242;8.168;2023-11-22T14:22:22;4.50;99.90
21672;DHT22;10997;52.242;8.168;2023-11-22T14:27:23;4.50;99.90
21672;DHT22;10997;52.242;8.168;2023-11-22T14:32:23;4.40;99.90
21672;DHT22;10997;52.242;8.168;2023-11-22T14:37:24;4.40;99.90
21672;DHT22;10997;52.242;8.168;2023-11-22T14:42:25;4.30;99.90
21672;DHT22;10997;52.242;8.168;2023-11-22T14:47:25;4.30;99.90
21672;DHT22;10997;52.242;8.168;2023-11-22T14:52:30;4.30;99.90
21672;DHT22;10997;52.242;8.168;2023-11-22T14:57:31;4.20;99.90
21672;DHT22;10997;52.242;8.168;2023-11-22T15:02:32;4.10;99.90
21672;DHT22;10997;52.242;8.168;2023-11-22T15:07:32;4.10;99.90
21672;DHT22;10997;52.242;8.168;2023-11-22T15:12:34;4.10;99.90
21672;DHT22;10997;52.242;8.168;2023-11-22T15:17:35;4.10;99.90
21672;DHT22;10997;52.242;8.168;2023-11-22T15:22:36;4.10;99.90
21672;DHT22;10997;52.242;8.168;2023-11-22T15:27:37;4.10;99.90
21672;DHT22;10997;52.242;8.168;2023-11-22T15:32:37;4.00;99.90
21672;DHT22;10997;52.242;8.168;2023-11-22T15:37:38;3.90;99.90
21672;DHT22;10997;52.242;8.168;2023-11-22T15:42:39;3.90;99.90
21672;DHT22;10997;52.242;8.168;2023-11-22T15:47:40;3.80;99.90
21672;DHT22;10997;52.242;8.168;2023-11-22T15:52:40;3.80;99.90
21672;DHT22;10997;52.242;8.168;2023-11-22T15:57:41;3.70;99.90
21672;DHT22;10997;52.242;8.168;2023-11-22T16:02:42;3.70;99.90
21672;DHT22;10997;52.242;8.168;2023-11-22T16:07:42;3.70;99.90
21672;DHT22;10997;52.242;8.168;2023-11-22T16:12:43;3.70;99.90
21672;DHT22;10997;52.242;8.168;2023-11-22T16:17:43;3.70;99.90
21672;DHT22;10997;52.242;8.168;2023-11-22T16:22:44;3.70;99.90
21672;DHT22;10997;52.242;8.168;2023-11-22T16:27:45;3.70;99.90
21672;DHT22;10997;52.242;8.168;2023-11-22T16:32:46;3.70;99.90
21672;DHT22;10997;52.242;8.168;2023-11-22T16:37:46;3.70;99.90
21672;DHT22;10997;52.242;8.168;2023-11-22T16:42:47;3.70;99.90
21672;DHT22;10997;52.242;8.168;2023-11-22T16:47:47;3.70;99.90
21672;DHT22;10997;52.242;8.168;2023-11-22T16:52:48;3.70;99.90
21672;DHT22;10997;52.242;8.168;2023-11-22T16:57:50;3.70;99.90
21672;DHT22;10997;52.242;8.168;2023-11-22T17:02:51;3.70;99.90
21672;DHT22;10997;52.242;8.168;2023-11-22T17:07:53;3.70;99.90
21672;DHT22;10997;52.242;8.168;2023-11-22T17:12:54;3.70;99.90
21672;DHT22;10997;52.242;8.168;2023-11-22T17:17:54;3.70;99.90
21672;DHT22;10997;52.242;8.168;2023-11-22T17:22:55;3.70;99.90
21672;DHT22;10997;52.242;8.168;2023-11-22T17:27:56;3.70;99.90
21672;DHT22;10997;52.242;8.168;2023-11-22T17:32:56;3.60;99.90
21672;DHT22;10997;52.242;8.168;2023-11-22T17:37:57;3.70;99.90
21672;DHT22;10997;52.242;8.168;2023-11-22T17:43:00;3.70;99.90
21672;DHT22;10997;52.242;8.168;2023-11-22T17:48:01;3.70;99.90
21672;DHT22;10997;52.242;8.168;2023-11-22T17:53:02;3.70;99.90
21672;DHT22;10997;52.242;8.168;2023-11-22T17:58:02;3.60;99.90
21672;DHT22;10997;52.242;8.168;2023-11-22T18:03:03;3.60;99.90
21672;DHT22;10997;52.242;8.168;2023-11-22T18:08:04;3.60;99.90
21672;DHT22;10997;52.242;8.168;2023-11-22T18:13:05;3.60;99.90
21672;DHT22;10997;52.242;8.168;2023-11-22T18:18:11;3.60;99.90
21672;DHT22;10997;52.242;8.168;2023-11-22T18:23:12;3.70;99.90
21672;DHT22;10997;52.242;8.168;2023-11-22T18:28:13;3.70;99.90
21672;DHT22;10997;52.242;8.168;2023-11-22T18:33:15;3.70;99.90
21672;DHT22;10997;52.242;8.168;2023-11-22T18:38:16;3.70;99.90
21672;DHT22;10997;52.242;8.168;2023-11-22T18:43:21;3.70;99.90
21672;DHT22;10997;52.242;8.168;2023-11-22T18:48:24;3.70;99.90
21672;DHT22;10997;52.242;8.168;2023-11-22T18:53:25;3.80;99.90
21672;DHT22;10997;52.242;8.168;2023-11-22T18:58:25;3.80;99.90
21672;DHT22;10997;52.242;8.168;2023-11-22T19:03:27;3.90;99.90
21672;DHT22;10997;52.242;8.168;2023-11-22T19:08:28;3.90;99.90
21672;DHT22;10997;52.242;8.168;2023-11-22T19:13:28;4.00;99.90
21672;DHT22;10997;52.242;8.168;2023-11-22T19:18:29;4.00;99.90
21672;DHT22;10997;52.242;8.168;2023-11-22T19:23:31;4.10;99.90
21672;DHT22;10997;52.242;8.168;2023-11-22T19:28:31;4.10;99.90
21672;DHT22;10997;52.242;8.168;2023-11-22T19:33:33;4.20;99.90
21672;DHT22;10997;52.242;8.168;2023-11-22T19:38:33;4.20;99.90
21672;DHT22;10997;52.242;8.168;2023-11-22T19:43:34;4.20;99.90
21672;DHT22;10997;52.242;8.168;2023-11-22T19:48:34;4.30;99.90
21672;DHT22;10997;52.242;8.168;2023-11-22T19:53:35;4.40;99.90
21672;DHT22;10997;52.242;8.168;2023-11-22T19:58:37;4.40;99.90
21672;DHT22;10997;52.242;8.168;2023-11-22T20:03:38;4.40;99.90
21672;DHT22;10997;52.242;8.168;2023-11-22T20:08:38;4.50;99.90
21672;DHT22;10997;52.242;8.168;2023-11-22T20:13:39;4.50;99.90
21672;DHT22;10997;52.242;8.168;2023-11-22T20:18:39;4.60;99.90
21672;DHT22;10997;52.242;8.168;2023-11-22T20:23:40;4.60;99.90
21672;DHT22;10997;52.242;8.168;2023-11-22T20:28:41;4.70;99.90
21672;DHT22;10997;52.242;8.168;2023-11-22T20:33:42;4.70;99.90
21672;DHT22;10997;52.242;8.168;2023-11-22T20:38:43;4.80;99.90
21672;DHT22;10997;52.242;8.168;2023-11-22T20:43:49;4.80;99.90
21672;DHT22;10997;52.242;8.168;2023-11-22T20:48:50;4.90;99.90
21672;DHT22;10997;52.242;8.168;2023-11-22T20:53:50;5.00;99.90
21672;DHT22;10997;52.242;8.168;2023-11-22T20:58:51;5.00;99.90
21672;DHT22;10997;52.242;8.168;2023-11-22T21:03:51;5.10;99.90
21672;DHT22;10997;52.242;8.168;2023-11-22T21:08:52;5.10;99.90
21672;DHT22;10997;52.242;8.168;2023-11-22T21:13:54;5.20;99.90
21672;DHT22;10997;52.242;8.168;2023-11-22T21:18:56;5.30;99.90
21672;DHT22;10997;52.242;8.168;2023-11-22T21:23:59;5.30;99.90
21672;DHT22;10997;52.242;8.168;2023-11-22T21:28:59;5.40;99.90
21672;DHT22;10997;52.242;8.168;2023-11-22T21:34:00;5.40;99.90
21672;DHT22;10997;52.242;8.168;2023-11-22T21:39:02;5.50;99.90
21672;DHT22;10997;52.242;8.168;2023-11-22T21:44:12;5.40;99.90
21672;DHT22;10997;52.242;8.168;2023-11-22T21:49:13;5.40;99.90
21672;DHT22;10997;52.242;8.168;2023-11-22T21:54:13;5.40;99.90
21672;DHT22;10997;52.242;8.168;2023-11-22T21:59:14;5.50;99.90
21672;DHT22;10997;52.242;8.168;2023-11-22T22:04:15;5.50;99.90
21672;DHT22;10997;52.242;8.168;2023-11-22T22:09:16;5.50;99.90
21672;DHT22;10997;52.242;8.168;2023-11-22T22:14:19;5.50;99.90
21672;DHT22;10997;52.242;8.168;2023-11-22T22:19:20;5.40;99.90
21672;DHT22;10997;52.242;8.168;2023-11-22T22:24:21;5.30;99.90
21672;DHT22;10997;52.242;8.168;2023-11-22T22:29:22;5.20;99.90
21672;DHT22;10997;52.242;8.168;2023-11-22T22:34:22;5.20;99.90
21672;DHT22;10997;52.242;8.168;2023-11-22T22:39:23;5.30;99.90
21672;DHT22;10997;52.242;8.168;2023-11-22T22:44:24;5.30;99.90
21672;DHT22;10997;52.242;8.168;2023-11-22T22:49:24;5.30;99.90
21672;DHT22;10997;52.242;8.168;2023-11-22T22:54:26;5.40;99.90
21672;DHT22;10997;52.242;8.168;2023-11-22T22:59:27;5.40;99.90
21672;DHT22;10997;52.242;8.168;2023-11-22T23:04:27;5.40;99.90
21672;DHT22;10997;52.242;8.168;2023-11-22T23:09:28;5.50;99.90
21672;DHT22;10997;52.242;8.168;2023-11-22T23:14:29;5.50;99.90
21672;DHT22;10997;52.242;8.168;2023-11-22T23:19:29;5.50;99.90
21672;DHT22;10997;52.242;8.168;2023-11-22T23:24:30;5.60;99.90
21672;DHT22;10997;52.242;8.168;2023-11-22T23:29:31;5.60;99.90
21672;DHT22;10997;52.242;8.168;2023-11-22T23:34:33;5.70;99.90
21672;DHT22;10997;52.242;8.168;2023-11-22T23:39:34;5.70;99.90
21672;DHT22;10997;52.242;8.168;2023-11-22T23:44:35;5.70;99.90
21672;DHT22;10997;52.242;8.168;2023-11-22T23:49:35;5.60;99.90
21672;DHT22;10997;52.242;8.168;2023-11-22T23:54:36;5.60;99.90
21672;DHT22;10997;52.242;8.168;2023-11-22T23:59:38;5.60;99.90
